Time;durP1;ratioP1;P1;durP2;ratioP2;P2;SDS_P1;SDS_P2;PMS_P1;PMS_P2;Temp;Humidity;BMP_temperature;BMP_pressure;BME280_temperature;BME280_humidity;BME280_pressure;Samples;Min_cycle;Max_cycle;Signal;HPM_P1;HPM_P2
2022/05/18 00:02:02;;;;;;;14.00;9.10;;;;;;;;;;5029636;28;20503;-86
2022/05/18 00:04:28;;;;;;;11.17;8.23;;;;;;;;;;5029757;28;20411;-86
2022/05/18 00:06:54;;;;;;;11.50;8.20;;;;;;;;;;5030328;28;20415;-86
2022/05/18 00:09:20;;;;;;;11.80;8.43;;;;;;;;;;5030717;28;20436;-86
2022/05/18 00:11:47;;;;;;;11.03;8.07;;;;;;;;;;5030438;28;20472;-86
2022/05/18 00:14:13;;;;;;;9.93;8.57;;;;;;;;;;5013427;28;20446;-86
2022/05/18 00:16:39;;;;;;;10.63;8.97;;;;;;;;;;5031001;28;20463;-86
2022/05/18 00:19:05;;;;;;;12.87;8.47;;;;;;;;;;5030737;28;20431;-86
2022/05/18 00:21:32;;;;;;;12.10;8.20;;;;;;;;;;5031383;28;20411;-86
2022/05/18 00:23:58;;;;;;;11.10;8.47;;;;;;;;;;5013514;28;20426;-86
2022/05/18 00:26:25;;;;;;;13.27;8.70;;;;;;;;;;5032244;28;20411;-86
2022/05/18 00:28:51;;;;;;;8.67;7.77;;;;;;;;;;5031795;28;20439;-86
2022/05/18 00:31:18;;;;;;;8.40;7.13;;;;;;;;;;5031057;28;20455;-86
2022/05/18 00:33:45;;;;;;;8.70;7.30;;;;;;;;;;5030425;28;20435;-87
2022/05/18 00:36:11;;;;;;;12.73;8.23;;;;;;;;;;5029989;28;20407;-87
2022/05/18 00:38:37;;;;;;;15.40;7.70;;;;;;;;;;5030628;28;20776;-86
2022/05/18 00:41:03;;;;;;;10.70;7.37;;;;;;;;;;5032278;28;20392;-84
2022/05/18 00:43:29;;;;;;;13.03;8.37;;;;;;;;;;5038810;28;20411;-84
2022/05/18 00:45:56;;;;;;;11.80;7.67;;;;;;;;;;5016641;28;20861;-86
2022/05/18 00:48:22;;;;;;;13.10;8.63;;;;;;;;;;5030982;28;20403;-85
2022/05/18 00:50:50;;;;;;;10.93;8.07;;;;;;;;;;5020296;28;20490;-84
2022/05/18 00:53:18;;;;;;;10.70;8.50;;;;;;;;;;5015354;28;20408;-83
2022/05/18 00:55:49;;;;;;;10.43;9.03;;;;;;;;;;5016271;28;20467;-84
2022/05/18 00:58:33;;;;;;;9.40;7.90;;;;;;;;;;5021589;28;20415;-85
2022/05/18 01:00:59;;;;;;;10.00;7.20;;;;;;;;;;5025058;28;20415;-86
2022/05/18 01:03:30;;;;;;;11.53;7.97;;;;;;;;;;5008744;28;20458;-84
2022/05/18 01:05:59;;;;;;;10.47;7.80;;;;;;;;;;5027533;28;20425;-86
2022/05/18 01:08:54;;;;;;;9.50;7.57;;;;;;;;;;5027988;28;20431;-86
2022/05/18 01:11:21;;;;;;;10.23;7.50;;;;;;;;;;5011470;28;20505;-85
2022/05/18 01:13:48;;;;;;;10.63;7.27;;;;;;;;;;5029191;28;20404;-84
2022/05/18 01:16:14;;;;;;;12.40;8.37;;;;;;;;;;5028166;28;20384;-85
2022/05/18 01:18:40;;;;;;;12.13;8.40;;;;;;;;;;5028743;28;20430;-86
2022/05/18 01:21:06;;;;;;;10.53;8.73;;;;;;;;;;5030223;28;20410;-85
2022/05/18 01:23:50;;;;;;;8.77;7.87;;;;;;;;;;5033307;28;20419;-86
2022/05/18 01:26:16;;;;;;;8.83;7.47;;;;;;;;;;5032945;28;20399;-86
2022/05/18 01:28:45;;;;;;;8.67;7.17;;;;;;;;;;5032976;28;20950;-86
2022/05/18 01:31:11;;;;;;;8.13;7.33;;;;;;;;;;5033525;28;20458;-86
2022/05/18 01:33:37;;;;;;;12.23;7.73;;;;;;;;;;5032848;28;20406;-87
2022/05/18 01:36:04;;;;;;;10.00;7.87;;;;;;;;;;5015650;28;20433;-86
2022/05/18 01:38:32;;;;;;;7.67;6.73;;;;;;;;;;5015239;28;20433;-85
2022/05/18 01:40:58;;;;;;;12.03;7.00;;;;;;;;;;5016060;28;20482;-85
2022/05/18 01:43:26;;;;;;;9.53;7.30;;;;;;;;;;5033321;28;20407;-86
2022/05/18 01:45:54;;;;;;;9.53;6.53;;;;;;;;;;5031744;28;20407;-85
2022/05/18 01:48:22;;;;;;;11.13;7.63;;;;;;;;;;5032380;28;20418;-84
2022/05/18 01:50:49;;;;;;;8.77;7.10;;;;;;;;;;5032473;28;20554;-85
2022/05/18 01:53:15;;;;;;;7.83;7.03;;;;;;;;;;5033959;28;20399;-86
2022/05/18 01:55:41;;;;;;;9.47;7.07;;;;;;;;;;5033154;28;20429;-86
2022/05/18 01:58:09;;;;;;;10.17;6.87;;;;;;;;;;5033773;28;20410;-85
2022/05/18 02:00:35;;;;;;;12.77;8.10;;;;;;;;;;5032839;28;20490;-86
2022/05/18 02:03:02;;;;;;;8.23;7.43;;;;;;;;;;5033084;28;20407;-86
2022/05/18 02:05:28;;;;;;;8.33;6.90;;;;;;;;;;5033458;28;20418;-85
2022/05/18 02:07:57;;;;;;;10.83;7.90;;;;;;;;;;5033982;28;20407;-86
2022/05/18 02:10:23;;;;;;;8.60;7.70;;;;;;;;;;5034285;28;20458;-86
2022/05/18 02:12:49;;;;;;;7.73;6.33;;;;;;;;;;5037226;28;20459;-85
2022/05/18 02:15:15;;;;;;;7.43;6.70;;;;;;;;;;5036159;28;20403;-86
2022/05/18 02:17:41;;;;;;;9.93;7.70;;;;;;;;;;5033743;28;20411;-86
2022/05/18 02:20:08;;;;;;;9.10;7.40;;;;;;;;;;5032692;28;20538;-86
2022/05/18 02:22:34;;;;;;;8.27;7.23;;;;;;;;;;5032818;28;20457;-86
2022/05/18 02:25:00;;;;;;;9.67;7.90;;;;;;;;;;5031987;28;20400;-86
2022/05/18 02:27:26;;;;;;;12.73;8.43;;;;;;;;;;5032169;28;20415;-86
2022/05/18 02:29:52;;;;;;;9.60;6.80;;;;;;;;;;5032512;28;20478;-86
2022/05/18 02:32:18;;;;;;;11.27;6.97;;;;;;;;;;5032838;28;20408;-86
2022/05/18 02:34:44;;;;;;;9.23;7.90;;;;;;;;;;5032387;28;20399;-85
2022/05/18 02:37:10;;;;;;;10.83;8.07;;;;;;;;;;5031496;28;20406;-86
2022/05/18 02:39:36;;;;;;;11.77;9.37;;;;;;;;;;5031948;28;20433;-85
2022/05/18 02:42:02;;;;;;;9.80;8.17;;;;;;;;;;5031445;28;20407;-86
2022/05/18 02:44:28;;;;;;;12.37;8.87;;;;;;;;;;5031753;28;20392;-86
2022/05/18 02:47:01;;;;;;;12.97;8.70;;;;;;;;;;5031450;28;20404;-86
2022/05/18 02:49:28;;;;;;;14.63;10.90;;;;;;;;;;5031104;28;20423;-86
2022/05/18 02:51:54;;;;;;;10.10;8.37;;;;;;;;;;5031843;28;20911;-86
2022/05/18 02:57:05;;;;;;;12.90;8.87;;;;;;;;;;5031217;28;20387;-86
2022/05/18 02:59:32;;;;;;;11.73;9.67;;;;;;;;;;5031680;28;20502;-86
2022/05/18 03:01:58;;;;;;;12.30;10.40;;;;;;;;;;5031441;28;20423;-86
2022/05/18 03:04:25;;;;;;;13.10;9.93;;;;;;;;;;5031020;28;20402;-86
2022/05/18 03:06:52;;;;;;;13.67;8.30;;;;;;;;;;5031500;28;20478;-85
2022/05/18 03:09:18;;;;;;;15.03;9.27;;;;;;;;;;5013600;28;20566;-86
2022/05/18 03:11:46;;;;;;;10.13;9.00;;;;;;;;;;5031460;28;20447;-84
2022/05/18 03:14:12;;;;;;;11.80;8.97;;;;;;;;;;5030836;28;20482;-86
2022/05/18 03:16:39;;;;;;;11.53;8.23;;;;;;;;;;5014068;28;20430;-85
2022/05/18 03:19:05;;;;;;;14.87;9.07;;;;;;;;;;5031086;28;20419;-86
2022/05/18 03:24:15;;;;;;;10.17;9.17;;;;;;;;;;5029527;28;20434;-85
2022/05/18 03:26:44;;;;;;;15.67;9.13;;;;;;;;;;5012544;28;20510;-85
2022/05/18 03:29:10;;;;;;;11.13;8.70;;;;;;;;;;5030292;28;20466;-85
2022/05/18 03:31:36;;;;;;;10.57;8.33;;;;;;;;;;5030364;28;20463;-85
2022/05/18 03:34:02;;;;;;;10.20;8.40;;;;;;;;;;5031099;28;20407;-85
2022/05/18 03:36:28;;;;;;;9.53;8.53;;;;;;;;;;5012874;28;20414;-85
2022/05/18 03:38:54;;;;;;;12.50;9.57;;;;;;;;;;5029771;28;20430;-87
2022/05/18 03:41:21;;;;;;;11.87;8.00;;;;;;;;;;5030142;28;20411;-85
2022/05/18 03:43:47;;;;;;;14.73;9.50;;;;;;;;;;5030155;28;20411;-85
2022/05/18 03:46:13;;;;;;;16.63;8.20;;;;;;;;;;5030994;28;20432;-86
2022/05/18 03:48:40;;;;;;;11.30;8.20;;;;;;;;;;5031963;28;20450;-86
2022/05/18 03:51:07;;;;;;;12.13;8.23;;;;;;;;;;5032730;28;20455;-84
2022/05/18 03:53:33;;;;;;;10.40;7.90;;;;;;;;;;5033660;28;20749;-86
2022/05/18 03:56:00;;;;;;;12.10;8.70;;;;;;;;;;5032131;28;20442;-86
2022/05/18 03:58:26;;;;;;;7.67;6.90;;;;;;;;;;5035931;28;20403;-84
2022/05/18 04:00:53;;;;;;;12.77;7.50;;;;;;;;;;5039348;28;20404;-85
2022/05/18 04:03:20;;;;;;;10.40;8.10;;;;;;;;;;5013811;28;20418;-86
2022/05/18 04:05:49;;;;;;;10.60;8.43;;;;;;;;;;5030906;28;20469;-86
2022/05/18 04:08:15;;;;;;;15.30;9.50;;;;;;;;;;5013663;28;20421;-86
2022/05/18 04:10:42;;;;;;;12.53;9.23;;;;;;;;;;5029086;28;20478;-85
2022/05/18 04:13:12;;;;;;;12.07;8.30;;;;;;;;;;5022202;28;20419;-86
2022/05/18 04:15:40;;;;;;;11.37;9.70;;;;;;;;;;5030213;28;20403;-87
2022/05/18 04:18:07;;;;;;;12.37;8.57;;;;;;;;;;5029916;28;20426;-86
2022/05/18 04:20:33;;;;;;;10.90;8.27;;;;;;;;;;5030103;28;20420;-86
2022/05/18 04:22:59;;;;;;;9.50;8.00;;;;;;;;;;5030343;28;20427;-86
2022/05/18 04:25:26;;;;;;;9.50;8.50;;;;;;;;;;5026199;28;20412;-84
2022/05/18 04:27:53;;;;;;;11.40;7.90;;;;;;;;;;5018722;28;20450;-83
2022/05/18 04:30:20;;;;;;;10.47;8.20;;;;;;;;;;5016337;28;20466;-83
2022/05/18 04:32:47;;;;;;;7.90;7.10;;;;;;;;;;5016254;28;20741;-83
2022/05/18 04:35:14;;;;;;;8.77;7.13;;;;;;;;;;5021653;28;20400;-84
2022/05/18 04:37:40;;;;;;;8.93;8.10;;;;;;;;;;5024770;28;20414;-85
2022/05/18 04:40:07;;;;;;;9.63;8.60;;;;;;;;;;5027795;28;20435;-86
2022/05/18 04:42:34;;;;;;;12.83;8.23;;;;;;;;;;5013148;28;20430;-84
2022/05/18 04:45:00;;;;;;;9.70;8.00;;;;;;;;;;5018930;28;20399;-83
2022/05/18 04:47:26;;;;;;;9.87;6.90;;;;;;;;;;5032282;28;20408;-86
2022/05/18 04:49:53;;;;;;;9.60;6.93;;;;;;;;;;5030715;28;20430;-86
2022/05/18 04:52:20;;;;;;;12.00;7.37;;;;;;;;;;5029669;28;20400;-86
2022/05/18 04:54:46;;;;;;;8.60;7.27;;;;;;;;;;5012424;28;20415;-85
2022/05/18 04:57:12;;;;;;;9.30;7.10;;;;;;;;;;5032459;28;20837;-86
2022/05/18 04:59:38;;;;;;;8.43;7.40;;;;;;;;;;5033821;28;20427;-86
2022/05/18 05:02:05;;;;;;;7.87;7.07;;;;;;;;;;5034627;28;20407;-85
2022/05/18 05:04:31;;;;;;;12.27;7.73;;;;;;;;;;5038993;28;20395;-87
2022/05/18 05:06:57;;;;;;;14.00;9.70;;;;;;;;;;5037989;28;20423;-86
2022/05/18 05:09:24;;;;;;;15.00;8.10;;;;;;;;;;5038024;28;20494;-85
2022/05/18 05:11:51;;;;;;;12.40;8.30;;;;;;;;;;5016480;28;20513;-86
2022/05/18 05:14:17;;;;;;;15.63;10.17;;;;;;;;;;5034348;28;20407;-88
2022/05/18 05:16:43;;;;;;;11.30;7.63;;;;;;;;;;5034069;28;20395;-86
2022/05/18 05:19:09;;;;;;;16.23;8.20;;;;;;;;;;5033997;28;20419;-86
2022/05/18 05:21:45;;;;;;;10.07;9.00;;;;;;;;;;5034366;28;20411;-86
2022/05/18 05:24:12;;;;;;;10.33;8.07;;;;;;;;;;5034181;28;20387;-85
2022/05/18 05:26:38;;;;;;;10.43;8.43;;;;;;;;;;5016943;28;20782;-86
2022/05/18 05:29:04;;;;;;;11.63;7.70;;;;;;;;;;5060051;22;20482;-87
2022/05/18 05:31:30;;;;;;;16.03;8.37;;;;;;;;;;5058063;28;20468;-86
2022/05/18 05:33:57;;;;;;;10.97;8.70;;;;;;;;;;5063322;28;20455;-87
2022/05/18 05:36:23;;;;;;;15.60;9.67;;;;;;;;;;5062628;28;20409;-87
2022/05/18 05:38:49;;;;;;;11.70;8.10;;;;;;;;;;5061453;28;20905;-86
2022/05/18 05:41:16;;;;;;;12.00;8.60;;;;;;;;;;5045559;28;20424;-87
2022/05/18 05:43:42;;;;;;;12.77;11.07;;;;;;;;;;5062848;28;20488;-86
2022/05/18 05:46:10;;;;;;;10.70;8.97;;;;;;;;;;5071804;28;20393;-85
2022/05/18 05:48:36;;;;;;;10.23;8.53;;;;;;;;;;5056571;28;20472;-85
2022/05/18 05:51:03;;;;;;;8.07;7.20;;;;;;;;;;5060932;28;20445;-85
2022/05/18 05:53:32;;;;;;;8.90;7.57;;;;;;;;;;5048339;28;20393;-85
2022/05/18 05:55:58;;;;;;;8.77;6.90;;;;;;;;;;5062857;28;20941;-87
2022/05/18 05:58:26;;;;;;;9.67;7.00;;;;;;;;;;5044646;28;20894;-85
2022/05/18 06:00:52;;;;;;;8.70;6.70;;;;;;;;;;5062364;28;20428;-85
2022/05/18 06:03:19;;;;;;;8.93;7.27;;;;;;;;;;5044703;28;20409;-85
2022/05/18 06:05:45;;;;;;;8.13;7.23;;;;;;;;;;5064241;28;20402;-86
2022/05/18 06:08:11;;;;;;;8.43;7.00;;;;;;;;;;5063941;28;20398;-86
2022/05/18 06:10:37;;;;;;;10.73;8.43;;;;;;;;;;5063168;28;20497;-86
2022/05/18 06:13:07;;;;;;;10.10;9.03;;;;;;;;;;5061901;28;20466;-87
2022/05/18 06:15:33;;;;;;;11.70;7.47;;;;;;;;;;5062759;28;20893;-86
2022/05/18 06:17:59;;;;;;;9.37;8.40;;;;;;;;;;5063379;28;20756;-87
2022/05/18 06:20:25;;;;;;;9.77;8.77;;;;;;;;;;5045593;28;20436;-87
2022/05/18 06:22:51;;;;;;;10.57;8.53;;;;;;;;;;5061665;28;20485;-86
2022/05/18 06:25:18;;;;;;;9.60;7.80;;;;;;;;;;5044214;28;20402;-86
2022/05/18 06:27:44;;;;;;;9.63;8.50;;;;;;;;;;5043964;28;20894;-86
2022/05/18 06:30:12;;;;;;;8.63;7.73;;;;;;;;;;5061435;28;20461;-87
2022/05/18 06:32:38;;;;;;;10.80;8.20;;;;;;;;;;5062427;28;20467;-87
2022/05/18 06:35:05;;;;;;;21.80;8.20;;;;;;;;;;5064879;28;20402;-87
2022/05/18 06:37:31;;;;;;;12.43;9.10;;;;;;;;;;5064767;28;20541;-86
2022/05/18 06:39:57;;;;;;;12.60;9.50;;;;;;;;;;5065568;28;20848;-86
2022/05/18 06:42:23;;;;;;;11.30;8.23;;;;;;;;;;5062543;28;20412;-85
2022/05/18 06:44:50;;;;;;;9.30;7.10;;;;;;;;;;5042559;28;20413;-85
2022/05/18 06:47:17;;;;;;;10.43;6.70;;;;;;;;;;5042452;28;20405;-85
2022/05/18 06:49:43;;;;;;;7.93;7.07;;;;;;;;;;5042354;28;20804;-85
2022/05/18 06:52:11;;;;;;;11.73;6.33;;;;;;;;;;5063097;28;20406;-86
2022/05/18 06:54:38;;;;;;;8.97;7.20;;;;;;;;;;5043977;28;20410;-86
2022/05/18 06:57:04;;;;;;;6.77;5.87;;;;;;;;;;5044483;28;20417;-87
2022/05/18 06:59:30;;;;;;;6.57;4.93;;;;;;;;;;5044477;28;20429;-86
2022/05/18 07:01:57;;;;;;;7.43;5.97;;;;;;;;;;5060473;28;20517;-86
2022/05/18 07:04:24;;;;;;;8.00;5.97;;;;;;;;;;5075075;28;20476;-87
2022/05/18 07:06:50;;;;;;;8.90;6.27;;;;;;;;;;5061155;28;20417;-86
2022/05/18 07:09:20;;;;;;;8.83;5.77;;;;;;;;;;5063366;28;20433;-87
2022/05/18 07:11:49;;;;;;;6.07;5.20;;;;;;;;;;5070302;28;20436;-86
2022/05/18 07:14:15;;;;;;;22.43;6.20;;;;;;;;;;5072275;28;20494;-85
2022/05/18 07:16:42;;;;;;;9.30;6.50;;;;;;;;;;5076636;28;20483;-86
2022/05/18 07:19:09;;;;;;;7.13;5.00;;;;;;;;;;5063735;28;20426;-87
2022/05/18 07:21:35;;;;;;;6.20;5.47;;;;;;;;;;5076440;28;20463;-85
2022/05/18 07:24:01;;;;;;;5.97;5.00;;;;;;;;;;5069013;28;20962;-86
2022/05/18 07:26:28;;;;;;;6.40;4.73;;;;;;;;;;5061053;28;20433;-86
2022/05/18 07:28:55;;;;;;;5.63;5.13;;;;;;;;;;5040713;28;20853;-87
2022/05/18 07:31:21;;;;;;;6.20;5.03;;;;;;;;;;5041641;28;20455;-86
2022/05/18 07:33:47;;;;;;;9.13;5.17;;;;;;;;;;5041702;28;20433;-85
2022/05/18 07:36:15;;;;;;;7.80;5.60;;;;;;;;;;5062853;28;20479;-85
2022/05/18 07:38:41;;;;;;;7.67;5.23;;;;;;;;;;5043219;28;20996;-86
2022/05/18 07:41:12;;;;;;;8.53;5.20;;;;;;;;;;5062916;28;20455;-84
2022/05/18 07:43:38;;;;;;;6.23;5.60;;;;;;;;;;5049770;28;20427;-86
2022/05/18 07:46:05;;;;;;;7.80;4.97;;;;;;;;;;5068251;28;20480;-87
2022/05/18 07:48:31;;;;;;;7.70;4.90;;;;;;;;;;5065529;28;20493;-88
2022/05/18 07:50:58;;;;;;;9.07;5.57;;;;;;;;;;5055312;28;20493;-87
2022/05/18 07:53:24;;;;;;;6.17;5.27;;;;;;;;;;5040143;28;20421;-87
2022/05/18 07:55:51;;;;;;;9.63;5.37;;;;;;;;;;5062470;28;20425;-85
2022/05/18 07:58:18;;;;;;;5.90;4.07;;;;;;;;;;5043330;28;20476;-85
2022/05/18 08:00:45;;;;;;;7.97;4.87;;;;;;;;;;5066013;28;20468;-86
2022/05/18 08:03:12;;;;;;;4.60;4.00;;;;;;;;;;5055825;28;20434;-85
2022/05/18 08:05:39;;;;;;;7.37;4.30;;;;;;;;;;5060020;28;20585;-87
2022/05/18 08:08:06;;;;;;;6.37;5.10;;;;;;;;;;5074037;28;20432;-85
2022/05/18 08:16:02;;;;;;;5.97;4.37;;;;;;;;;;5072237;28;20435;-84
2022/05/18 08:18:29;;;;;;;8.43;4.50;;;;;;;;;;5068174;28;20777;-85
2022/05/18 08:20:55;;;;;;;4.93;4.43;;;;;;;;;;5060125;28;20949;-86
2022/05/18 08:23:21;;;;;;;5.80;4.43;;;;;;;;;;5072708;28;20415;-85
2022/05/18 08:25:48;;;;;;;6.97;4.50;;;;;;;;;;5057194;28;20911;-85
2022/05/18 08:28:15;;;;;;;8.10;4.67;;;;;;;;;;5068319;28;20432;-86
2022/05/18 08:30:42;;;;;;;11.00;4.50;;;;;;;;;;5057553;28;20477;-86
2022/05/18 08:33:09;;;;;;;6.23;4.10;;;;;;;;;;5042750;28;20449;-86
2022/05/18 08:35:35;;;;;;;6.00;3.90;;;;;;;;;;5070415;28;20432;-85
2022/05/18 08:38:01;;;;;;;8.63;4.60;;;;;;;;;;5065883;28;20457;-84
2022/05/18 08:40:30;;;;;;;4.53;3.70;;;;;;;;;;5049618;28;20449;-85
2022/05/18 08:42:57;;;;;;;8.63;4.27;;;;;;;;;;5027940;28;20434;-84
2022/05/18 08:45:26;;;;;;;5.50;4.40;;;;;;;;;;5058794;28;20414;-86
2022/05/18 08:48:03;;;;;;;7.90;4.43;;;;;;;;;;5047525;28;20411;-84
2022/05/18 08:50:29;;;;;;;6.37;4.67;;;;;;;;;;5036767;28;20460;-85
2022/05/18 08:52:57;;;;;;;7.37;3.80;;;;;;;;;;5057631;28;20425;-85
2022/05/18 08:55:29;;;;;;;10.70;3.93;;;;;;;;;;5069222;28;20420;-85
2022/05/18 08:57:56;;;;;;;4.60;3.30;;;;;;;;;;5066028;28;20425;-85
2022/05/18 09:00:26;;;;;;;11.60;4.20;;;;;;;;;;5035551;28;20465;-88
2022/05/18 09:02:59;;;;;;;4.87;3.30;;;;;;;;;;5064503;28;20437;-86
2022/05/18 09:05:31;;;;;;;6.30;3.30;;;;;;;;;;5044365;28;20424;-87
2022/05/18 09:07:57;;;;;;;5.27;3.60;;;;;;;;;;5070922;28;20440;-86
2022/05/18 09:10:30;;;;;;;5.00;3.90;;;;;;;;;;5051415;28;20469;-87
2022/05/18 09:12:56;;;;;;;6.33;4.07;;;;;;;;;;5071130;28;20460;-87
2022/05/18 09:15:45;;;;;;;8.17;3.50;;;;;;;;;;5061364;28;20422;-87
2022/05/18 09:18:15;;;;;;;6.90;4.20;;;;;;;;;;5040100;28;20468;-87
2022/05/18 09:20:55;;;;;;;13.40;3.80;;;;;;;;;;5053120;28;20433;-85
2022/05/18 09:23:24;;;;;;;9.57;4.40;;;;;;;;;;5056645;28;20796;-86
2022/05/18 09:26:09;;;;;;;6.40;4.17;;;;;;;;;;5045783;28;20441;-87
2022/05/18 09:28:53;;;;;;;5.20;3.40;;;;;;;;;;5045671;28;20425;-87
2022/05/18 09:31:31;;;;;;;4.77;4.20;;;;;;;;;;5072664;28;20565;-86
2022/05/18 09:34:16;;;;;;;6.30;3.60;;;;;;;;;;5077242;28;20444;-87
2022/05/18 09:36:49;;;;;;;5.87;3.50;;;;;;;;;;5064179;28;20429;-87
2022/05/18 09:39:17;;;;;;;4.07;3.20;;;;;;;;;;5075805;28;20421;-87
2022/05/18 09:41:52;;;;;;;4.47;2.80;;;;;;;;;;5054033;28;20520;-87
2022/05/18 09:44:34;;;;;;;5.90;3.20;;;;;;;;;;5063103;28;20527;-87
2022/05/18 09:47:01;;;;;;;6.37;3.00;;;;;;;;;;5048309;28;20447;-86
2022/05/18 09:49:29;;;;;;;5.80;2.67;;;;;;;;;;5079959;28;20544;-86
2022/05/18 09:52:01;;;;;;;7.60;4.10;;;;;;;;;;5071974;28;20542;-86
2022/05/18 09:54:29;;;;;;;8.93;3.97;;;;;;;;;;5068413;28;20436;-86
2022/05/18 09:57:02;;;;;;;6.90;4.40;;;;;;;;;;5063078;28;20436;-88
2022/05/18 09:59:30;;;;;;;10.73;4.80;;;;;;;;;;5068854;28;20854;-88
2022/05/18 10:07:34;;;;;;;4.80;3.50;;;;;;;;;;5061371;28;20920;-86
2022/05/18 10:10:12;;;;;;;8.20;3.87;;;;;;;;;;5048120;28;20474;-87
2022/05/18 10:12:46;;;;;;;4.90;3.33;;;;;;;;;;5056446;28;20421;-86
2022/05/18 10:15:32;;;;;;;6.80;3.47;;;;;;;;;;5072989;28;20429;-85
2022/05/18 10:18:00;;;;;;;4.90;4.07;;;;;;;;;;5070105;28;20933;-85
2022/05/18 10:20:28;;;;;;;5.40;3.00;;;;;;;;;;5056334;28;20534;-84
2022/05/18 10:22:55;;;;;;;3.60;2.87;;;;;;;;;;5071843;28;20417;-86
2022/05/18 10:25:39;;;;;;;5.47;3.37;;;;;;;;;;5054029;28;20939;-85
2022/05/18 10:28:26;;;;;;;6.03;3.30;;;;;;;;;;5070319;28;20440;-86
2022/05/18 10:30:55;;;;;;;6.13;3.73;;;;;;;;;;5076815;28;20475;-85
2022/05/18 10:33:23;;;;;;;3.80;2.97;;;;;;;;;;5063133;28;20440;-87
2022/05/18 10:35:51;;;;;;;3.57;3.10;;;;;;;;;;5069219;28;20424;-86
2022/05/18 10:38:25;;;;;;;4.63;3.07;;;;;;;;;;5050649;28;20430;-85
2022/05/18 10:41:12;;;;;;;4.43;2.93;;;;;;;;;;5057895;28;20446;-86
2022/05/18 10:43:43;;;;;;;4.47;2.90;;;;;;;;;;5041080;28;20474;-86
2022/05/18 10:46:11;;;;;;;5.70;2.90;;;;;;;;;;5045328;28;20459;-86
2022/05/18 10:48:37;;;;;;;6.23;2.80;;;;;;;;;;5060315;28;20463;-86
2022/05/18 10:51:07;;;;;;;4.40;2.87;;;;;;;;;;5040818;28;20468;-87
2022/05/18 10:53:35;;;;;;;4.10;2.70;;;;;;;;;;5047203;28;20418;-87
2022/05/18 10:56:07;;;;;;;4.30;3.07;;;;;;;;;;5043472;28;20921;-86
2022/05/18 10:58:37;;;;;;;7.10;3.23;;;;;;;;;;5043810;28;20429;-86
2022/05/18 11:01:11;;;;;;;3.10;2.27;;;;;;;;;;5041002;28;20599;-85
2022/05/18 11:03:43;;;;;;;9.70;3.57;;;;;;;;;;5042504;28;20485;-85
2022/05/18 11:06:20;;;;;;;3.93;3.10;;;;;;;;;;5060330;28;20429;-86
2022/05/18 11:08:46;;;;;;;6.70;3.87;;;;;;;;;;5059927;28;20421;-86
2022/05/18 11:11:12;;;;;;;3.70;3.17;;;;;;;;;;5042189;28;20454;-87
2022/05/18 11:13:38;;;;;;;7.57;3.73;;;;;;;;;;5042968;28;20483;-86
2022/05/18 11:16:10;;;;;;;5.10;3.20;;;;;;;;;;5041173;28;20422;-86
2022/05/18 11:18:45;;;;;;;6.00;4.17;;;;;;;;;;5057467;28;20983;-86
2022/05/18 11:21:31;;;;;;;6.87;5.00;;;;;;;;;;5059830;28;20437;-86
2022/05/18 11:23:57;;;;;;;6.47;4.30;;;;;;;;;;5059945;28;20925;-86
2022/05/18 11:26:26;;;;;;;11.83;4.33;;;;;;;;;;5042656;28;20401;-85
2022/05/18 11:28:55;;;;;;;8.67;4.73;;;;;;;;;;5059951;28;20436;-87
2022/05/18 11:31:34;;;;;;;6.80;4.37;;;;;;;;;;5061257;28;20457;-87
2022/05/18 11:34:15;;;;;;;7.10;3.90;;;;;;;;;;5042021;28;20405;-87
2022/05/18 11:36:41;;;;;;;7.90;4.60;;;;;;;;;;5042423;28;20541;-86
2022/05/18 11:39:10;;;;;;;5.47;4.77;;;;;;;;;;5059665;28;20527;-87
2022/05/18 11:41:48;;;;;;;7.03;4.47;;;;;;;;;;5059118;28;20755;-86
2022/05/18 11:44:22;;;;;;;6.17;4.50;;;;;;;;;;5035854;28;20433;-87
2022/05/18 11:47:07;;;;;;;4.70;3.97;;;;;;;;;;5051549;28;20402;-86
2022/05/18 11:49:45;;;;;;;5.13;4.63;;;;;;;;;;5058366;28;20448;-88
2022/05/18 11:52:11;;;;;;;4.73;4.23;;;;;;;;;;5050871;28;20487;-86
2022/05/18 11:54:55;;;;;;;6.30;4.33;;;;;;;;;;5030491;28;20413;-86
2022/05/18 11:57:28;;;;;;;6.37;4.90;;;;;;;;;;5049259;28;20434;-87
2022/05/18 12:00:10;;;;;;;6.77;4.40;;;;;;;;;;5040359;28;20445;-87
2022/05/18 12:02:45;;;;;;;6.10;5.07;;;;;;;;;;5041493;28;20419;-86
2022/05/18 12:05:14;;;;;;;6.83;4.80;;;;;;;;;;5040983;28;20493;-85
2022/05/18 12:07:59;;;;;;;5.77;5.20;;;;;;;;;;5059524;28;20410;-88
2022/05/18 12:10:36;;;;;;;7.70;5.07;;;;;;;;;;5041248;28;20457;-86
2022/05/18 12:13:24;;;;;;;8.83;4.93;;;;;;;;;;5057853;28;20484;-87
2022/05/18 12:16:00;;;;;;;6.20;4.80;;;;;;;;;;5059472;28;20491;-87
2022/05/18 12:18:45;;;;;;;7.63;4.77;;;;;;;;;;5059289;28;20409;-87
2022/05/18 12:21:27;;;;;;;5.60;4.83;;;;;;;;;;5043576;28;20498;-86
2022/05/18 12:24:00;;;;;;;6.10;4.93;;;;;;;;;;5049784;28;20417;-87
2022/05/18 12:26:27;;;;;;;7.47;4.57;;;;;;;;;;5040059;28;20383;-87
2022/05/18 12:28:53;;;;;;;8.20;5.00;;;;;;;;;;5040726;28;20771;-87
2022/05/18 12:31:19;;;;;;;6.83;4.40;;;;;;;;;;5071682;28;20451;-87
2022/05/18 12:33:47;;;;;;;10.53;4.67;;;;;;;;;;5079744;28;20447;-85
2022/05/18 12:36:15;;;;;;;5.23;4.03;;;;;;;;;;5080698;28;20476;-85
2022/05/18 12:38:56;;;;;;;9.43;4.73;;;;;;;;;;5080774;28;20397;-86
2022/05/18 12:41:31;;;;;;;6.80;4.30;;;;;;;;;;5060627;28;20412;-87
2022/05/18 12:44:09;;;;;;;5.00;3.83;;;;;;;;;;5043592;28;20421;-86
2022/05/18 12:46:43;;;;;;;4.77;3.90;;;;;;;;;;5059675;28;20444;-87
2022/05/18 12:49:12;;;;;;;7.10;3.90;;;;;;;;;;5059072;28;20445;-86
2022/05/18 12:51:38;;;;;;;6.40;3.63;;;;;;;;;;5041881;28;20548;-86
2022/05/18 12:54:10;;;;;;;6.83;3.83;;;;;;;;;;5041894;28;20841;-86
2022/05/18 12:56:36;;;;;;;6.33;3.93;;;;;;;;;;5041447;28;20508;-85
2022/05/18 12:59:13;;;;;;;5.93;4.50;;;;;;;;;;5045395;28;20460;-85
2022/05/18 13:01:40;;;;;;;5.20;4.03;;;;;;;;;;5059769;28;20433;-85
2022/05/18 13:04:26;;;;;;;7.33;3.93;;;;;;;;;;5051287;28;20484;-86
2022/05/18 13:06:57;;;;;;;10.63;3.97;;;;;;;;;;5040007;28;20459;-85
2022/05/18 13:09:23;;;;;;;4.07;3.50;;;;;;;;;;5040507;28;20425;-85
2022/05/18 13:11:49;;;;;;;6.63;3.97;;;;;;;;;;5039580;28;20461;-86
2022/05/18 13:14:15;;;;;;;4.10;3.17;;;;;;;;;;5040711;28;20465;-87
2022/05/18 13:16:41;;;;;;;7.47;4.30;;;;;;;;;;5028942;28;20909;-85
2022/05/18 13:19:14;;;;;;;7.93;4.13;;;;;;;;;;5042170;28;20937;-86
2022/05/18 13:21:46;;;;;;;5.97;3.43;;;;;;;;;;5044237;28;20813;-86
2022/05/18 13:24:14;;;;;;;4.50;3.00;;;;;;;;;;5038724;28;20528;-84
2022/05/18 13:26:43;;;;;;;4.40;3.43;;;;;;;;;;5046464;28;20429;-86
2022/05/18 13:29:15;;;;;;;4.50;3.27;;;;;;;;;;5067159;28;20449;-86
2022/05/18 13:31:42;;;;;;;5.10;3.63;;;;;;;;;;5066349;28;20448;-84
2022/05/18 13:34:11;;;;;;;5.20;3.17;;;;;;;;;;5062903;28;20412;-86
2022/05/18 13:36:38;;;;;;;5.20;2.90;;;;;;;;;;5044519;28;20424;-83
2022/05/18 13:39:08;;;;;;;7.43;3.27;;;;;;;;;;5062435;28;20405;-85
2022/05/18 13:41:35;;;;;;;4.00;2.70;;;;;;;;;;5061934;28;20397;-85
2022/05/18 13:44:02;;;;;;;3.00;2.50;;;;;;;;;;5061980;28;20463;-85
2022/05/18 13:46:29;;;;;;;3.77;3.03;;;;;;;;;;5043311;28;20466;-85
2022/05/18 13:49:02;;;;;;;4.83;2.43;;;;;;;;;;5043545;28;20398;-85
2022/05/18 13:51:32;;;;;;;2.87;2.30;;;;;;;;;;5061066;28;20449;-86
2022/05/18 13:53:59;;;;;;;4.20;2.17;;;;;;;;;;5063466;28;20408;-87
2022/05/18 13:56:32;;;;;;;3.57;2.20;;;;;;;;;;5063341;28;20410;-85
2022/05/18 13:59:02;;;;;;;6.70;2.40;;;;;;;;;;5043369;28;20504;-85
2022/05/18 14:01:29;;;;;;;4.10;2.27;;;;;;;;;;5060501;28;20402;-85
2022/05/18 14:03:56;;;;;;;3.17;2.40;;;;;;;;;;5041922;28;20512;-86
2022/05/18 14:06:23;;;;;;;3.53;2.53;;;;;;;;;;5041942;28;20413;-85
2022/05/18 14:08:53;;;;;;;3.20;2.10;;;;;;;;;;5060417;28;20559;-86
2022/05/18 14:11:20;;;;;;;4.87;2.23;;;;;;;;;;5060148;28;20592;-86
2022/05/18 14:13:47;;;;;;;5.20;2.63;;;;;;;;;;5061494;28;20409;-86
2022/05/18 14:16:22;;;;;;;6.60;2.20;;;;;;;;;;5043850;28;20409;-86
2022/05/18 14:18:49;;;;;;;3.63;2.10;;;;;;;;;;5061744;28;20393;-86
2022/05/18 14:21:15;;;;;;;6.07;3.27;;;;;;;;;;5043909;28;20457;-87
2022/05/18 14:23:58;;;;;;;3.50;2.03;;;;;;;;;;5061720;28;20409;-86
2022/05/18 14:26:26;;;;;;;3.30;2.30;;;;;;;;;;5044346;28;20397;-85
2022/05/18 14:28:53;;;;;;;3.73;2.20;;;;;;;;;;5061739;28;20414;-85
2022/05/18 14:31:22;;;;;;;3.60;2.03;;;;;;;;;;5061763;28;20456;-86
2022/05/18 14:33:53;;;;;;;2.70;2.07;;;;;;;;;;5044158;28;20885;-86
2022/05/18 14:36:37;;;;;;;3.13;2.40;;;;;;;;;;5061269;28;20398;-86
2022/05/18 14:39:15;;;;;;;3.83;2.70;;;;;;;;;;5061282;28;20873;-86
2022/05/18 14:41:47;;;;;;;3.50;2.40;;;;;;;;;;5060919;28;20441;-85
2022/05/18 14:44:24;;;;;;;4.83;2.10;;;;;;;;;;5062299;28;20410;-86
2022/05/18 14:46:53;;;;;;;4.00;2.40;;;;;;;;;;5062011;28;20377;-85
2022/05/18 14:49:22;;;;;;;4.93;2.00;;;;;;;;;;5062732;28;20483;-85
2022/05/18 14:51:48;;;;;;;3.27;2.10;;;;;;;;;;5063161;28;20967;-86
2022/05/18 14:54:17;;;;;;;3.30;2.00;;;;;;;;;;5043289;28;20452;-84
2022/05/18 14:56:44;;;;;;;2.73;2.00;;;;;;;;;;5063389;28;20398;-86
2022/05/18 14:59:13;;;;;;;4.30;2.40;;;;;;;;;;5044907;28;20429;-85
2022/05/18 15:01:40;;;;;;;2.83;1.73;;;;;;;;;;5061862;28;20594;-85
2022/05/18 15:04:25;;;;;;;8.80;3.60;;;;;;;;;;5061729;28;20413;-84
2022/05/18 15:06:53;;;;;;;8.13;2.40;;;;;;;;;;5061691;28;20405;-85